Time,TemperatureF,DewpointF,PressureIn,WindDirection,WindDirectionDegrees,WindSpeedMPH,WindSpeedGustMPH,Humidity,HourlyPrecipIn,Conditions,Clouds,dailyrainin,SoftwareType,DateUTC
2013-12-17 00:01:00,33.9,16.3,30.20,East,99,0.0,0.0,48,0.00,-RA,OVC,0.00,WeatherDisplay:10.37,2013-12-17 07:01:00,
2013-12-17 00:06:00,33.7,15.6,30.20,East,99,0.0,0.0,47,0.00,-RA,OVC,0.00,WeatherDisplay:10.37,2013-12-17 07:06:00,
2013-12-17 00:11:00,33.5,15.4,30.20,East,99,2.3,0.0,47,0.00,-RA,OVC,0.00,WeatherDisplay:10.37,2013-12-17 07:11:00,
2013-12-17 00:16:00,33.6,15.0,30.20,East,99,0.0,0.0,46,0.00,-RA,OVC,0.00,WeatherDisplay:10.37,2013-12-17 07:16:00,
2013-12-17 00:21:00,33.8,15.7,30.20,East,99,1.1,0.0,47,0.00,-RA,OVC,0.00,WeatherDisplay:10.37,2013-12-17 07:21:00,
2013-12-17 00:26:00,33.6,15.5,30.20,East,99,0.0,0.0,47,0.00,-RA,OVC,0.00,WeatherDisplay:10.37,2013-12-17 07:26:00,
2013-12-17 00:31:00,33.2,15.6,30.20,East,99,0.0,0.0,48,0.00,-RA,OVC,0.00,WeatherDisplay:10.37,2013-12-17 07:31:00,
2013-12-17 00:36:00,32.8,15.2,30.20,SSE,157,2.3,2.3,48,0.00,-RA,OVC,0.00,WeatherDisplay:10.37,2013-12-17 07:36:00,
2013-12-17 00:41:00,33.1,15.5,30.20,SSE,158,0.0,0.0,48,0.00,-RA,OVC,0.00,WeatherDisplay:10.37,2013-12-17 07:41:00,
2013-12-17 00:46:00,33.1,15.5,30.20,SSE,157,1.1,0.0,48,0.00,-RA,OVC,0.00,WeatherDisplay:10.37,2013-12-17 07:46:00,
2013-12-17 00:51:00,33.1,15.5,30.20,SSE,153,3.5,3.5,48,0.00,-RA,OVC,0.00,WeatherDisplay:10.37,2013-12-17 07:51:00,
2013-12-17 00:56:00,33.1,15.5,30.20,SSE,153,0.0,0.0,48,0.00,-RA,OVC,0.00,WeatherDisplay:10.37,2013-12-17 07:56:00,
2013-12-17 01:01:00,33.0,15.4,30.20,SSE,147,4.6,4.6,48,0.00,-RA,OVC,0.00,WeatherDisplay:10.37,2013-12-17 08:01:00,
2013-12-17 01:06:00,33.0,15.4,30.20,SSE,147,3.5,3.5,48,0.00,-RA,OVC,0.00,WeatherDisplay:10.37,2013-12-17 08:06:00,
2013-12-17 01:11:00,32.8,15.7,30.20,SE,146,2.3,2.3,49,0.00,-RA,OVC,0.00,WeatherDisplay:10.37,2013-12-17 08:11:00,
2013-12-17 01:16:00,32.8,15.7,30.20,SE,146,0.0,0.0,49,0.00,-RA,OVC,0.00,WeatherDisplay:10.37,2013-12-17 08:16:00,
2013-12-17 01:21:00,32.5,15.9,30.20,SE,146,0.0,0.0,50,0.00,-RA,OVC,0.00,WeatherDisplay:10.37,2013-12-17 08:21:00,
2013-12-17 01:26:00,32.3,15.7,30.20,SE,146,0.0,0.0,50,0.00,-RA,OVC,0.00,WeatherDisplay:10.37,2013-12-17 08:26:00,
2013-12-17 01:31:00,32.2,15.6,30.20,SE,146,0.0,0.5,50,0.00,-RA,OVC,0.00,WeatherDisplay:10.37,2013-12-17 08:31:00,
2013-12-17 01:36:00,32.3,15.3,30.20,SE,146,0.0,0.0,49,0.00,-RA,OVC,0.00,WeatherDisplay:10.37,2013-12-17 08:36:00,
2013-12-17 01:41:00,32.4,14.9,30.20,SE,146,0.0,0.0,48,0.00,-RA,OVC,0.00,WeatherDisplay:10.37,2013-12-17 08:41:00,
2013-12-17 01:46:00,32.4,15.3,30.21,SE,146,0.0,0.0,49,0.00,-RA,OVC,0.00,WeatherDisplay:10.37,2013-12-17 08:46:00,
2013-12-17 01:51:00,32.4,14.9,30.21,SE,146,0.0,0.0,48,0.00,-RA,OVC,0.00,WeatherDisplay:10.37,2013-12-17 08:51:00,
2013-12-17 01:56:00,32.4,14.9,30.21,SE,146,0.0,0.0,48,0.00,-RA,OVC,0.00,WeatherDisplay:10.37,2013-12-17 08:56:00,
2013-12-17 02:01:00,32.4,14.9,30.21,SE,146,0.0,0.0,48,0.00,-RA,OVC,0.00,WeatherDisplay:10.37,2013-12-17 09:01:00,
2013-12-17 02:06:00,32.0,15.4,30.21,ENE,70,0.0,0.2,50,0.00,-RA,OVC,0.00,WeatherDisplay:10.37,2013-12-17 09:06:00,
2013-12-17 02:11:00,31.9,15.8,30.21,ENE,70,0.0,0.0,51,0.00,-RA,OVC,0.00,WeatherDisplay:10.37,2013-12-17 09:11:00,
2013-12-17 02:16:00,31.7,15.6,30.21,WNW,292,0.0,0.0,51,0.00,-RA,OVC,0.00,WeatherDisplay:10.37,2013-12-17 09:16:00,
2013-12-17 02:21:00,31.7,15.2,30.21,West,279,3.5,3.5,50,0.00,-RA,OVC,0.00,WeatherDisplay:10.37,2013-12-17 09:21:00,
2013-12-17 02:26:00,31.7,15.6,30.21,West,279,2.3,2.3,51,0.00,-RA,OVC,0.00,WeatherDisplay:10.37,2013-12-17 09:26:00,
2013-12-17 02:31:00,31.3,15.7,30.21,South,178,3.5,3.5,52,0.00,-RA,OVC,0.00,WeatherDisplay:10.37,2013-12-17 09:31:00,
2013-12-17 02:36:00,31.1,15.5,30.21,South,178,0.0,0.0,52,0.00,-RA,OVC,0.00,WeatherDisplay:10.37,2013-12-17 09:36:00,
2013-12-17 02:41:00,30.9,15.8,30.21,South,179,0.0,0.0,53,0.00,-RA,OVC,0.00,WeatherDisplay:10.37,2013-12-17 09:41:00,
2013-12-17 02:46:00,30.6,15.9,30.21,SE,137,6.9,6.9,54,0.00,-RA,OVC,0.00,WeatherDisplay:10.37,2013-12-17 09:46:00,
2013-12-17 02:51:00,30.4,15.7,30.21,ESE,108,4.6,4.8,54,0.00,-RA,OVC,0.00,WeatherDisplay:10.37,2013-12-17 09:51:00,
2013-12-17 02:56:00,30.7,16.0,30.21,ESE,108,0.0,0.0,54,0.00,-RA,OVC,0.00,WeatherDisplay:10.37,2013-12-17 09:56:00,
2013-12-17 03:01:00,30.7,16.0,30.21,ENE,75,2.3,2.3,54,0.00,-RA,OVC,0.00,WeatherDisplay:10.37,2013-12-17 10:01:00,
2013-12-17 03:06:00,30.5,15.4,30.21,ENE,74,0.0,0.0,53,0.00,-RA,OVC,0.00,WeatherDisplay:10.37,2013-12-17 10:06:00,
2013-12-17 03:11:00,30.5,16.2,30.21,ENE,74,0.0,0.0,55,0.00,-RA,OVC,0.00,WeatherDisplay:10.37,2013-12-17 10:11:00,
2013-12-17 03:16:00,30.3,16.0,30.21,ENE,74,0.0,0.0,55,0.00,-RA,OVC,0.00,WeatherDisplay:10.37,2013-12-17 10:16:00,
2013-12-17 03:21:00,30.2,16.0,30.21,ENE,74,0.0,0.0,55,0.00,-RA,OVC,0.00,WeatherDisplay:10.37,2013-12-17 10:21:00,
2013-12-17 03:26:00,30.1,15.9,30.21,ENE,74,1.1,0.0,55,0.00,-RA,OVC,0.00,WeatherDisplay:10.37,2013-12-17 10:26:00,
2013-12-17 03:31:00,30.2,15.5,30.21,ENE,74,0.0,0.0,54,0.00,-RA,OVC,0.00,WeatherDisplay:10.37,2013-12-17 10:31:00,
2013-12-17 03:36:00,30.2,16.4,30.21,ENE,74,0.0,0.6,56,0.00,-RA,OVC,0.00,WeatherDisplay:10.37,2013-12-17 10:36:00,
2013-12-17 03:41:00,29.9,16.1,30.21,ENE,74,1.1,0.0,56,0.00,-RA,OVC,0.00,WeatherDisplay:10.37,2013-12-17 10:41:00,
2013-12-17 03:46:00,29.8,16.0,30.21,ENE,74,0.0,0.0,56,0.00,-RA,OVC,0.00,WeatherDisplay:10.37,2013-12-17 10:46:00,
2013-12-17 03:51:00,30.0,15.8,30.21,ENE,74,0.0,0.1,55,0.00,-RA,OVC,0.00,WeatherDisplay:10.37,2013-12-17 10:51:00,
2013-12-17 03:56:00,30.2,15.5,30.22,ENE,74,0.0,0.0,54,0.00,-RA,OVC,0.00,WeatherDisplay:10.37,2013-12-17 10:56:00,
2013-12-17 04:01:00,30.6,15.9,30.22,ENE,74,1.1,1.1,54,0.00,-RA,OVC,0.00,WeatherDisplay:10.37,2013-12-17 11:01:00,
2013-12-17 04:06:00,31.2,16.0,30.22,ENE,74,2.3,2.3,53,0.00,-RA,OVC,0.00,WeatherDisplay:10.37,2013-12-17 11:06:00,
2013-12-17 04:11:00,31.7,16.1,30.22,ENE,74,1.1,1.1,52,0.00,-RA,OVC,0.00,WeatherDisplay:10.37,2013-12-17 11:11:00,
2013-12-17 04:16:00,31.7,15.6,30.22,ENE,74,3.5,3.5,51,0.00,-RA,OVC,0.00,WeatherDisplay:10.37,2013-12-17 11:16:00,
2013-12-17 04:21:00,31.6,15.5,30.22,ENE,74,0.0,0.0,51,0.00,-RA,OVC,0.00,WeatherDisplay:10.37,2013-12-17 11:21:00,
2013-12-17 04:26:00,31.6,15.5,30.22,ENE,74,0.0,0.1,51,0.00,-RA,OVC,0.00,WeatherDisplay:10.37,2013-12-17 11:26:00,
2013-12-17 04:31:00,31.5,15.4,30.22,ENE,74,3.5,0.0,51,0.00,-RA,OVC,0.00,WeatherDisplay:10.37,2013-12-17 11:31:00,
2013-12-17 04:36:00,31.5,16.3,30.22,ENE,74,3.0,3.0,53,0.00,-RA,OVC,0.00,WeatherDisplay:10.37,2013-12-17 11:36:00,
2013-12-17 04:41:00,31.4,15.8,30.22,ENE,74,0.0,0.1,52,0.00,-RA,OVC,0.00,WeatherDisplay:10.37,2013-12-17 11:41:00,
2013-12-17 04:46:00,31.5,15.9,30.22,ENE,74,1.1,0.0,52,0.00,-RA,OVC,0.00,WeatherDisplay:10.37,2013-12-17 11:46:00,
2013-12-17 04:51:00,31.7,16.1,30.22,ENE,74,3.5,0.0,52,0.00,-RA,OVC,0.00,WeatherDisplay:10.37,2013-12-17 11:51:00,
2013-12-17 04:56:00,31.8,15.7,30.22,ENE,74,0.0,0.0,51,0.00,-RA,OVC,0.00,WeatherDisplay:10.37,2013-12-17 11:56:00,
2013-12-17 05:01:00,31.5,15.4,30.22,ENE,74,1.1,0.0,51,0.00,-RA,OVC,0.00,WeatherDisplay:10.37,2013-12-17 12:01:00,
2013-12-17 05:06:00,31.3,15.7,30.22,East,90,3.5,3.5,52,0.00,-RA,OVC,0.00,WeatherDisplay:10.37,2013-12-17 12:06:00,
2013-12-17 05:11:00,30.8,15.7,30.22,East,90,2.3,0.0,53,0.00,-RA,OVC,0.00,WeatherDisplay:10.37,2013-12-17 12:11:00,
2013-12-17 05:16:00,30.5,15.8,30.22,East,90,0.0,0.0,54,0.00,-RA,OVC,0.00,WeatherDisplay:10.37,2013-12-17 12:16:00,
2013-12-17 05:21:00,30.2,15.5,30.22,South,175,2.0,2.0,54,0.00,-RA,OVC,0.00,WeatherDisplay:10.37,2013-12-17 12:21:00,
2013-12-17 05:26:00,30.0,16.2,30.22,SSE,152,3.5,3.5,56,0.00,-RA,OVC,0.00,WeatherDisplay:10.37,2013-12-17 12:26:00,
2013-12-17 05:31:00,29.9,16.1,30.22,SSE,152,1.1,1.1,56,0.00,-RA,OVC,0.00,WeatherDisplay:10.37,2013-12-17 12:31:00,
2013-12-17 05:36:00,29.8,16.4,30.22,SSE,152,2.0,2.0,57,0.00,-RA,OVC,0.00,WeatherDisplay:10.37,2013-12-17 12:36:00,
2013-12-17 05:41:00,29.9,16.1,30.22,SSE,150,2.3,2.3,56,0.00,-RA,OVC,0.00,WeatherDisplay:10.37,2013-12-17 12:41:00,
2013-12-17 05:46:00,30.1,16.7,30.22,SE,140,0.0,1.4,57,0.00,-RA,OVC,0.00,WeatherDisplay:10.37,2013-12-17 12:46:00,
2013-12-17 05:51:00,30.1,16.7,30.22,East,92,2.3,2.3,57,0.00,-RA,OVC,0.00,WeatherDisplay:10.37,2013-12-17 12:51:00,
2013-12-17 05:56:00,29.8,16.4,30.24,East,92,0.0,0.0,57,0.00,-RA,OVC,0.00,WeatherDisplay:10.37,2013-12-17 12:56:00,
2013-12-17 06:02:00,29.6,16.2,30.24,East,92,2.0,2.0,57,0.00,-RA,OVC,0.00,WeatherDisplay:10.37,2013-12-17 13:02:00,
2013-12-17 06:07:00,29.4,16.4,30.24,East,92,0.0,0.0,58,0.00,-RA,OVC,0.00,WeatherDisplay:10.37,2013-12-17 13:07:00,
2013-12-17 06:12:00,29.4,16.4,30.24,East,92,3.5,3.5,58,0.00,-RA,OVC,0.00,WeatherDisplay:10.37,2013-12-17 13:12:00,
2013-12-17 06:17:00,29.7,16.3,30.24,East,92,0.0,0.0,57,0.00,-RA,OVC,0.00,WeatherDisplay:10.37,2013-12-17 13:17:00,
2013-12-17 06:22:00,29.7,16.3,30.24,East,92,0.0,0.0,57,0.00,-RA,OVC,0.00,WeatherDisplay:10.37,2013-12-17 13:22:00,
2013-12-17 06:27:00,29.8,16.4,30.24,East,92,2.3,2.3,57,0.00,-RA,OVC,0.00,WeatherDisplay:10.37,2013-12-17 13:27:00,
2013-12-17 06:32:00,29.9,16.5,30.25,East,92,2.3,2.3,57,0.00,-RA,OVC,0.00,WeatherDisplay:10.37,2013-12-17 13:32:00,
2013-12-17 06:37:00,30.3,16.0,30.25,East,92,2.3,2.3,55,0.00,-RA,OVC,0.00,WeatherDisplay:10.37,2013-12-17 13:37:00,
2013-12-17 06:42:00,30.8,15.2,30.25,East,92,0.0,0.0,52,0.00,-RA,OVC,0.00,WeatherDisplay:10.37,2013-12-17 13:42:00,
2013-12-17 06:47:00,31.3,15.2,30.25,East,92,0.0,0.0,51,0.00,-RA,OVC,0.00,WeatherDisplay:10.37,2013-12-17 13:47:00,
2013-12-17 06:52:00,31.5,16.3,30.25,East,92,1.1,1.1,53,0.00,-RA,OVC,0.00,WeatherDisplay:10.37,2013-12-17 13:52:00,
2013-12-17 06:57:00,31.1,15.9,30.25,East,92,0.0,0.0,53,0.00,-RA,OVC,0.00,WeatherDisplay:10.37,2013-12-17 13:57:00,
2013-12-17 07:02:00,31.1,15.9,30.25,East,92,0.0,0.0,53,0.00,-RA,OVC,0.00,WeatherDisplay:10.37,2013-12-17 14:02:00,
2013-12-17 07:07:00,30.9,16.2,30.25,East,92,1.1,0.0,54,0.00,-RA,OVC,0.00,WeatherDisplay:10.37,2013-12-17 14:07:00,
2013-12-17 07:12:00,30.6,16.3,30.25,East,92,0.0,0.0,55,0.00,-RA,OVC,0.00,WeatherDisplay:10.37,2013-12-17 14:12:00,
2013-12-17 07:17:00,30.2,16.4,30.25,East,92,0.0,0.0,56,0.00,-RA,OVC,0.00,WeatherDisplay:10.37,2013-12-17 14:17:00,
2013-12-17 07:22:00,29.9,16.5,30.25,East,92,1.1,0.0,57,0.00,-RA,OVC,0.00,WeatherDisplay:10.37,2013-12-17 14:22:00,
2013-12-17 07:27:00,29.8,16.4,30.25,East,92,0.0,0.0,57,0.00,-RA,OVC,0.00,WeatherDisplay:10.37,2013-12-17 14:27:00,
2013-12-17 07:32:00,29.7,16.3,30.25,East,92,0.0,0.0,57,0.00,-RA,OVC,0.00,WeatherDisplay:10.37,2013-12-17 14:32:00,
2013-12-17 07:37:00,29.8,16.8,30.25,East,92,3.5,3.5,58,0.00,-RA,OVC,0.00,WeatherDisplay:10.37,2013-12-17 14:37:00,
2013-12-17 07:42:00,29.8,16.4,30.26,East,92,0.0,0.0,57,0.00,-RA,OVC,0.00,WeatherDisplay:10.37,2013-12-17 14:42:00,
2013-12-17 07:47:00,30.2,16.4,30.26,East,92,3.5,3.5,56,0.00,-RA,OVC,0.00,WeatherDisplay:10.37,2013-12-17 14:47:00,
2013-12-17 07:52:00,31.0,16.3,30.27,East,92,2.3,2.3,54,0.00,-RA,OVC,0.00,WeatherDisplay:10.37,2013-12-17 14:52:00,
2013-12-17 07:57:00,31.9,16.7,30.27,East,92,0.0,0.0,53,0.00,-RA,OVC,0.00,WeatherDisplay:10.37,2013-12-17 14:57:00,
2013-12-17 08:02:00,33.0,16.8,30.27,East,92,0.0,0.0,51,0.00,-RA,OVC,0.00,WeatherDisplay:10.37,2013-12-17 15:02:00,
2013-12-17 08:07:00,34.1,16.9,30.27,East,92,2.3,2.3,49,0.00,-RA,OVC,0.00,WeatherDisplay:10.37,2013-12-17 15:07:00,
2013-12-17 08:12:00,35.2,17.0,30.27,ENE,76,3.5,3.5,47,0.00,-RA,OVC,0.00,WeatherDisplay:10.37,2013-12-17 15:12:00,
2013-12-17 08:17:00,36.0,17.2,30.27,ENE,76,1.0,0.0,46,0.00,-RA,OVC,0.00,WeatherDisplay:10.37,2013-12-17 15:17:00,
2013-12-17 08:22:00,37.0,17.1,30.27,ENE,76,0.0,0.0,44,0.00,-RA,OVC,0.00,WeatherDisplay:10.37,2013-12-17 15:22:00,
2013-12-17 08:27:00,38.1,17.0,30.27,ENE,76,0.0,0.0,42,0.00,-RA,OVC,0.00,WeatherDisplay:10.37,2013-12-17 15:27:00,
2013-12-17 08:32:00,39.2,16.9,30.27,ENE,76,0.0,0.0,40,0.00,-RA,OVC,0.00,WeatherDisplay:10.37,2013-12-17 15:32:00,
2013-12-17 08:37:00,40.0,17.6,30.27,ENE,76,0.0,0.0,40,0.00,-RA,OVC,0.00,WeatherDisplay:10.37,2013-12-17 15:37:00,
2013-12-17 08:42:00,40.8,17.7,30.27,ENE,76,0.0,0.0,39,0.00,-RA,OVC,0.00,WeatherDisplay:10.37,2013-12-17 15:42:00,
2013-12-17 08:47:00,41.5,17.7,30.27,NNE,24,2.3,2.3,38,0.00,-RA,OVC,0.00,WeatherDisplay:10.37,2013-12-17 15:47:00,
2013-12-17 08:52:00,42.2,17.8,30.27,NNE,30,1.1,1.1,37,0.00,-RA,OVC,0.00,WeatherDisplay:10.37,2013-12-17 15:52:00,
2013-12-17 08:57:00,42.8,18.3,30.27,NNE,30,3.5,3.5,37,0.00,-RA,OVC,0.00,WeatherDisplay:10.37,2013-12-17 15:57:00,
2013-12-17 09:02:00,43.7,19.1,30.27,NNE,30,2.3,2.3,37,0.00,-RA,OVC,0.00,WeatherDisplay:10.37,2013-12-17 16:02:00,
2013-12-17 09:07:00,44.6,19.3,30.27,NNE,24,2.3,2.3,36,0.00,-RA,OVC,0.00,WeatherDisplay:10.37,2013-12-17 16:07:00,
2013-12-17 09:12:00,45.4,18.6,30.26,NNE,12,3.5,3.5,34,0.00,-RA,OVC,0.00,WeatherDisplay:10.37,2013-12-17 16:12:00,
2013-12-17 09:17:00,45.9,19.1,30.26,NNE,12,3.5,3.5,34,0.00,-RA,OVC,0.00,WeatherDisplay:10.37,2013-12-17 16:17:00,
2013-12-17 09:22:00,45.4,19.3,30.26,North,5,3.5,3.5,35,0.00,-RA,OVC,0.00,WeatherDisplay:10.37,2013-12-17 16:22:00,
2013-12-17 09:27:00,44.8,18.8,30.26,West,280,2.3,2.3,35,0.00,-RA,OVC,0.00,WeatherDisplay:10.37,2013-12-17 16:27:00,
2013-12-17 09:32:00,44.6,17.9,30.26,NNE,28,3.5,3.5,34,0.00,-RA,OVC,0.00,WeatherDisplay:10.37,2013-12-17 16:32:00,
2013-12-17 09:37:00,44.7,18.0,30.26,NNE,15,4.0,4.0,34,0.00,-RA,OVC,0.00,WeatherDisplay:10.37,2013-12-17 16:37:00,
2013-12-17 09:42:00,45.0,17.6,30.26,North,5,4.0,4.0,33,0.00,-RA,OVC,0.00,WeatherDisplay:10.37,2013-12-17 16:42:00,
2013-12-17 09:47:00,45.5,18.0,30.26,North,5,3.5,3.5,33,0.00,-RA,OVC,0.00,WeatherDisplay:10.37,2013-12-17 16:47:00,
2013-12-17 09:52:00,46.3,18.7,30.26,North,5,1.1,1.1,33,0.00,-RA,OVC,0.00,WeatherDisplay:10.37,2013-12-17 16:52:00,
2013-12-17 09:57:00,47.2,18.1,30.26,North,5,2.3,2.3,31,0.00,-RA,OVC,0.00,WeatherDisplay:10.37,2013-12-17 16:57:00,
2013-12-17 10:02:00,48.3,18.3,30.26,North,5,0.0,0.0,30,0.00,-RA,OVC,0.00,WeatherDisplay:10.37,2013-12-17 17:02:00,
2013-12-17 10:07:00,49.2,19.0,30.26,North,355,3.5,3.5,30,0.00,-RA,OVC,0.00,WeatherDisplay:10.37,2013-12-17 17:07:00,
2013-12-17 10:12:00,49.7,18.7,30.26,NNW,348,4.6,4.6,29,0.00,-RA,OVC,0.00,WeatherDisplay:10.37,2013-12-17 17:12:00,
2013-12-17 10:17:00,49.7,17.9,30.26,NNW,343,3.5,3.5,28,0.00,-RA,OVC,0.00,WeatherDisplay:10.37,2013-12-17 17:17:00,
2013-12-17 10:22:00,49.7,18.7,30.26,North,360,3.5,3.5,29,0.00,-RA,OVC,0.00,WeatherDisplay:10.37,2013-12-17 17:22:00,
2013-12-17 10:27:00,49.8,18.8,30.26,North,350,3.5,0.0,29,0.00,-RA,OVC,0.00,WeatherDisplay:10.37,2013-12-17 17:27:00,
2013-12-17 10:32:00,50.0,18.9,30.26,NNE,12,2.0,2.0,29,0.00,-RA,OVC,0.00,WeatherDisplay:10.37,2013-12-17 17:32:00,
2013-12-17 10:37:00,50.2,18.3,30.26,NNE,18,3.5,3.5,28,0.00,-RA,OVC,0.00,WeatherDisplay:10.37,2013-12-17 17:37:00,
2013-12-17 10:42:00,50.4,17.6,30.26,North,11,4.0,4.0,27,0.00,-RA,OVC,0.00,WeatherDisplay:10.37,2013-12-17 17:42:00,
2013-12-17 10:47:00,50.9,18.1,30.26,North,5,3.5,3.5,27,0.00,-RA,OVC,0.00,WeatherDisplay:10.37,2013-12-17 17:47:00,
2013-12-17 10:52:00,51.4,17.6,30.26,North,10,2.3,2.3,26,0.00,-RA,OVC,0.00,WeatherDisplay:10.37,2013-12-17 17:52:00,
2013-12-17 10:57:00,51.9,18.0,30.26,NNE,12,3.5,3.5,26,0.00,-RA,OVC,0.00,WeatherDisplay:10.37,2013-12-17 17:57:00,
2013-12-17 11:02:00,52.4,18.5,30.26,NE,49,3.5,3.5,26,0.00,-RA,OVC,0.00,WeatherDisplay:10.37,2013-12-17 18:02:00,
2013-12-17 11:07:00,53.1,18.2,30.26,NE,47,3.5,3.5,25,0.00,-RA,OVC,0.00,WeatherDisplay:10.37,2013-12-17 18:07:00,
2013-12-17 11:12:00,53.7,18.7,30.26,NNE,33,3.5,3.5,25,0.00,-RA,OVC,0.00,WeatherDisplay:10.37,2013-12-17 18:12:00,
2013-12-17 11:17:00,54.0,18.0,30.26,NNE,32,1.1,1.1,24,0.00,-RA,OVC,0.00,WeatherDisplay:10.37,2013-12-17 18:17:00,
2013-12-17 11:22:00,54.6,17.5,30.26,NNE,32,2.0,2.0,23,0.00,-RA,OVC,0.00,WeatherDisplay:10.37,2013-12-17 18:22:00,
2013-12-17 11:27:00,55.1,16.9,30.26,NNE,28,2.3,2.3,22,0.00,-RA,OVC,0.00,WeatherDisplay:10.37,2013-12-17 18:27:00,
2013-12-17 11:32:00,55.6,18.3,30.26,NNE,30,2.3,2.3,23,0.00,-RA,OVC,0.00,WeatherDisplay:10.37,2013-12-17 18:32:00,
2013-12-17 11:37:00,56.2,17.8,30.26,NNE,29,3.5,3.5,22,0.00,-RA,OVC,0.00,WeatherDisplay:10.37,2013-12-17 18:37:00,
2013-12-17 11:42:00,56.6,18.1,30.26,NNE,17,3.5,3.5,22,0.00,-RA,OVC,0.00,WeatherDisplay:10.37,2013-12-17 18:42:00,
2013-12-17 11:47:00,56.7,18.2,30.26,NNW,339,3.5,3.5,22,0.00,-RA,OVC,0.00,WeatherDisplay:10.37,2013-12-17 18:47:00,
2013-12-17 11:52:00,56.8,17.2,30.26,NNW,341,3.5,3.5,21,0.00,-RA,OVC,0.00,WeatherDisplay:10.37,2013-12-17 18:52:00,
2013-12-17 11:57:00,56.9,17.3,30.26,North,360,3.5,3.5,21,0.00,-RA,OVC,0.00,WeatherDisplay:10.37,2013-12-17 18:57:00,
2013-12-17 12:02:00,57.2,17.6,30.22,North,350,3.5,3.5,21,0.00,-RA,OVC,0.00,WeatherDisplay:10.37,2013-12-17 19:02:00,
2013-12-17 12:07:00,57.5,17.8,30.22,North,349,3.5,3.5,21,0.00,-RA,OVC,0.00,WeatherDisplay:10.37,2013-12-17 19:07:00,
2013-12-17 12:12:00,58.0,18.2,30.22,North,350,2.3,2.3,21,0.00,-RA,OVC,0.00,WeatherDisplay:10.37,2013-12-17 19:12:00,
2013-12-17 12:17:00,58.5,17.5,30.22,North,350,1.1,1.1,20,0.00,-RA,OVC,0.00,WeatherDisplay:10.37,2013-12-17 19:17:00,
2013-12-17 12:22:00,59.0,17.9,30.22,North,350,0.0,0.0,20,0.00,-RA,OVC,0.00,WeatherDisplay:10.37,2013-12-17 19:22:00,
2013-12-17 12:27:00,59.4,18.3,30.22,NNE,19,3.5,3.5,20,0.00,-RA,OVC,0.00,WeatherDisplay:10.37,2013-12-17 19:27:00,
2013-12-17 12:32:00,59.5,17.1,30.22,NNE,17,3.5,3.5,19,0.00,-RA,OVC,0.00,WeatherDisplay:10.37,2013-12-17 19:32:00,
2013-12-17 12:37:00,59.6,17.2,30.22,NNE,17,3.5,3.5,19,0.00,-RA,OVC,0.00,WeatherDisplay:10.37,2013-12-17 19:37:00,
2013-12-17 12:42:00,59.8,17.4,30.22,NNE,17,4.0,4.0,19,0.00,-RA,OVC,0.00,WeatherDisplay:10.37,2013-12-17 19:42:00,
2013-12-17 12:47:00,60.0,16.3,30.22,NNE,16,3.5,3.5,18,0.00,-RA,OVC,0.00,WeatherDisplay:10.37,2013-12-17 19:47:00,
2013-12-17 12:52:00,60.6,16.8,30.22,NNE,16,2.3,2.3,18,0.00,-RA,OVC,0.00,WeatherDisplay:10.37,2013-12-17 19:52:00,
2013-12-17 12:57:00,61.0,17.1,30.22,NNE,16,3.5,3.5,18,0.00,-RA,OVC,0.00,WeatherDisplay:10.37,2013-12-17 19:57:00,
2013-12-17 13:02:00,61.2,17.3,30.22,NNE,16,4.0,4.0,18,0.00,-RA,OVC,0.00,WeatherDisplay:10.37,2013-12-17 20:02:00,
2013-12-17 13:07:00,61.5,17.5,30.22,NNE,16,3.5,3.5,18,0.00,-RA,OVC,0.00,WeatherDisplay:10.37,2013-12-17 20:07:00,
2013-12-17 13:12:00,61.4,17.5,30.22,NNE,16,4.0,4.0,18,0.00,-RA,OVC,0.00,WeatherDisplay:10.37,2013-12-17 20:12:00,
2013-12-17 13:17:00,61.2,17.3,30.22,NNE,12,3.5,3.5,18,0.00,-RA,OVC,0.00,WeatherDisplay:10.37,2013-12-17 20:17:00,
2013-12-17 13:22:00,61.1,17.2,30.22,North,9,3.5,3.5,18,0.00,-RA,OVC,0.00,WeatherDisplay:10.37,2013-12-17 20:22:00,
2013-12-17 13:27:00,61.2,17.3,30.22,North,355,3.5,3.5,18,0.00,-RA,OVC,0.00,WeatherDisplay:10.37,2013-12-17 20:27:00,
2013-12-17 13:32:00,61.5,17.5,30.22,North,355,2.0,2.0,18,0.00,-RA,OVC,0.00,WeatherDisplay:10.37,2013-12-17 20:32:00,
2013-12-17 13:37:00,61.8,17.8,30.22,North,355,2.3,2.3,18,0.00,-RA,OVC,0.00,WeatherDisplay:10.37,2013-12-17 20:37:00,
2013-12-17 13:42:00,62.1,18.0,30.22,North,355,1.0,1.0,18,0.00,-RA,OVC,0.00,WeatherDisplay:10.37,2013-12-17 20:42:00,
2013-12-17 13:47:00,62.4,17.0,30.22,North,355,2.3,2.3,17,0.00,-RA,OVC,0.00,WeatherDisplay:10.37,2013-12-17 20:47:00,
2013-12-17 13:52:00,62.9,17.4,30.22,North,355,1.1,1.1,17,0.00,-RA,OVC,0.00,WeatherDisplay:10.37,2013-12-17 20:52:00,
2013-12-17 13:57:00,63.5,17.8,30.22,North,355,2.3,2.3,17,0.00,-RA,OVC,0.00,WeatherDisplay:10.37,2013-12-17 20:57:00,
2013-12-17 14:02:00,63.6,17.9,30.22,North,355,0.0,0.0,17,0.00,-RA,OVC,0.00,WeatherDisplay:10.37,2013-12-17 21:02:00,
2013-12-17 14:07:00,64.1,16.9,30.22,North,355,3.5,3.5,16,0.00,-RA,OVC,0.00,WeatherDisplay:10.37,2013-12-17 21:07:00,
2013-12-17 14:12:00,63.9,16.8,30.22,North,360,6.9,6.9,16,0.00,-RA,OVC,0.00,WeatherDisplay:10.37,2013-12-17 21:12:00,
2013-12-17 14:17:00,63.8,16.7,30.22,North,360,1.1,1.1,16,0.00,-RA,OVC,0.00,WeatherDisplay:10.37,2013-12-17 21:17:00,
2013-12-17 14:22:00,63.8,16.7,30.22,North,360,1.1,1.1,16,0.00,-RA,OVC,0.00,WeatherDisplay:10.37,2013-12-17 21:22:00,
2013-12-17 14:27:00,64.1,16.9,30.22,North,360,1.1,1.1,16,0.00,-RA,OVC,0.00,WeatherDisplay:10.37,2013-12-17 21:27:00,
2013-12-17 14:32:00,64.6,17.3,30.22,North,360,1.1,0.0,16,0.00,-RA,OVC,0.00,WeatherDisplay:10.37,2013-12-17 21:32:00,
2013-12-17 14:37:00,65.0,16.2,30.22,North,360,2.3,2.3,15,0.00,-RA,OVC,0.00,WeatherDisplay:10.37,2013-12-17 21:37:00,
2013-12-17 14:42:00,65.0,16.2,30.22,North,360,2.3,2.3,15,0.00,-RA,OVC,0.00,WeatherDisplay:10.37,2013-12-17 21:42:00,
2013-12-17 14:47:00,64.7,15.9,30.22,North,360,3.5,3.5,15,0.00,-RA,OVC,0.00,WeatherDisplay:10.37,2013-12-17 21:47:00,
2013-12-17 14:52:00,64.3,15.6,30.17,North,360,2.3,2.3,15,0.00,-RA,OVC,0.00,WeatherDisplay:10.37,2013-12-17 21:52:00,
2013-12-17 14:57:00,63.9,16.8,30.17,ESE,119,6.9,6.9,16,0.00,-RA,OVC,0.00,WeatherDisplay:10.37,2013-12-17 21:57:00,
2013-12-17 15:02:00,63.4,16.4,30.17,ESE,116,3.5,3.5,16,0.00,-RA,OVC,0.00,WeatherDisplay:10.37,2013-12-17 22:02:00,
2013-12-17 15:07:00,63.1,16.1,30.17,ESE,117,1.1,1.1,16,0.00,-RA,OVC,0.00,WeatherDisplay:10.37,2013-12-17 22:07:00,
2013-12-17 15:12:00,62.9,17.4,30.17,ESE,117,3.5,3.5,17,0.00,-RA,OVC,0.00,WeatherDisplay:10.37,2013-12-17 22:12:00,
2013-12-17 15:16:00,62.7,17.2,30.17,ESE,117,3.5,3.5,17,0.00,-RA,OVC,0.00,WeatherDisplay:10.37,2013-12-17 22:16:00,
2013-12-17 15:21:00,62.6,17.1,30.17,SE,130,4.6,4.6,17,0.00,-RA,OVC,0.00,WeatherDisplay:10.37,2013-12-17 22:21:00,
2013-12-17 15:26:00,62.5,17.0,30.17,ESE,111,4.6,4.6,17,0.00,-RA,OVC,0.00,WeatherDisplay:10.37,2013-12-17 22:26:00,
2013-12-17 15:31:00,62.4,17.0,30.17,SE,128,5.0,5.0,17,0.00,-RA,OVC,0.00,WeatherDisplay:10.37,2013-12-17 22:31:00,
2013-12-17 15:36:00,62.2,16.8,30.17,ESE,114,10.4,10.4,17,0.00,-RA,OVC,0.00,WeatherDisplay:10.37,2013-12-17 22:36:00,
2013-12-17 15:41:00,61.9,16.5,30.17,East,100,10.4,10.4,17,0.00,-RA,OVC,0.00,WeatherDisplay:10.37,2013-12-17 22:41:00,
2013-12-17 15:46:00,61.8,16.5,30.16,SE,127,9.2,9.2,17,0.00,-RA,OVC,0.00,WeatherDisplay:10.37,2013-12-17 22:46:00,
2013-12-17 15:51:00,61.6,14.9,30.16,SE,145,10.4,10.4,16,0.00,-RA,OVC,0.00,WeatherDisplay:10.37,2013-12-17 22:51:00,
2013-12-17 15:56:00,61.5,16.2,30.16,ESE,113,7.0,7.0,17,0.00,-RA,OVC,0.00,WeatherDisplay:10.37,2013-12-17 22:56:00,
2013-12-17 16:01:00,61.2,16.0,30.16,SE,127,6.9,6.9,17,0.00,-RA,OVC,0.00,WeatherDisplay:10.37,2013-12-17 23:01:00,
2013-12-17 16:06:00,60.7,15.6,30.16,SE,132,10.4,10.4,17,0.00,-RA,OVC,0.00,WeatherDisplay:10.37,2013-12-17 23:06:00,
2013-12-17 16:11:00,60.3,15.2,30.16,ESE,119,11.5,11.5,17,0.00,-RA,OVC,0.00,WeatherDisplay:10.37,2013-12-17 23:11:00,
2013-12-17 16:16:00,59.9,14.9,30.16,SE,132,11.5,11.5,17,0.00,-RA,OVC,0.00,WeatherDisplay:10.37,2013-12-17 23:16:00,
2013-12-17 16:21:00,59.6,16.0,30.16,ESE,113,11.5,11.5,18,0.00,-RA,OVC,0.00,WeatherDisplay:10.37,2013-12-17 23:21:00,
2013-12-17 16:26:00,59.3,15.7,30.16,SE,124,12.7,12.7,18,0.00,-RA,OVC,0.00,WeatherDisplay:10.37,2013-12-17 23:26:00,
2013-12-17 16:31:00,59.0,15.5,30.16,SE,127,8.1,8.1,18,0.00,-RA,OVC,0.00,WeatherDisplay:10.37,2013-12-17 23:31:00,
2013-12-17 16:36:00,58.7,15.2,30.16,SE,126,9.2,9.2,18,0.00,-RA,OVC,0.00,WeatherDisplay:10.37,2013-12-17 23:36:00,
2013-12-17 16:41:00,58.7,15.2,30.16,ESE,123,11.0,11.0,18,0.00,-RA,OVC,0.00,WeatherDisplay:10.37,2013-12-17 23:41:00,
2013-12-17 16:46:00,58.9,14.1,30.16,SE,128,12.7,12.7,17,0.00,-RA,OVC,0.00,WeatherDisplay:10.37,2013-12-17 23:46:00,
2013-12-17 16:51:00,59.1,15.6,30.14,ESE,115,9.2,9.2,18,0.00,-RA,OVC,0.00,WeatherDisplay:10.37,2013-12-17 23:51:00,
2013-12-17 16:56:00,58.8,15.3,30.14,East,89,11.0,11.0,18,0.00,-RA,OVC,0.00,WeatherDisplay:10.37,2013-12-17 23:56:00,
2013-12-17 17:01:00,58.9,15.4,30.14,ESE,102,10.4,10.4,18,0.00,-RA,OVC,0.00,WeatherDisplay:10.37,2013-12-18 00:01:00,
2013-12-17 17:06:00,59.0,14.2,30.14,SE,128,15.0,15.0,17,0.00,-RA,OVC,0.00,WeatherDisplay:10.37,2013-12-18 00:06:00,
2013-12-17 17:11:00,59.2,14.3,30.14,SE,144,13.8,13.8,17,0.00,-RA,OVC,0.00,WeatherDisplay:10.37,2013-12-18 00:11:00,
2013-12-17 17:16:00,59.2,14.3,30.14,SE,139,16.1,16.1,17,0.00,-RA,OVC,0.00,WeatherDisplay:10.37,2013-12-18 00:16:00,
2013-12-17 17:21:00,59.0,14.2,30.14,SE,135,12.7,12.7,17,0.00,-RA,OVC,0.00,WeatherDisplay:10.37,2013-12-18 00:21:00,
2013-12-17 17:26:00,58.8,15.3,30.14,SE,127,9.2,9.2,18,0.00,-RA,OVC,0.00,WeatherDisplay:10.37,2013-12-18 00:26:00,
2013-12-17 17:31:00,58.5,13.8,30.14,ESE,107,9.2,9.2,17,0.00,-RA,OVC,0.00,WeatherDisplay:10.37,2013-12-18 00:31:00,
2013-12-17 17:36:00,58.3,14.9,30.14,SE,126,6.9,6.9,18,0.00,-RA,OVC,0.00,WeatherDisplay:10.37,2013-12-18 00:36:00,
2013-12-17 17:41:00,58.1,14.8,30.14,SE,134,11.5,11.5,18,0.00,-RA,OVC,0.00,WeatherDisplay:10.37,2013-12-18 00:41:00,
2013-12-17 17:46:00,58.1,13.4,30.14,SE,131,11.5,11.5,17,0.00,-RA,OVC,0.00,WeatherDisplay:10.37,2013-12-18 00:46:00,
2013-12-17 17:51:00,58.2,13.5,30.14,SE,136,7.0,7.0,17,0.00,-RA,OVC,0.00,WeatherDisplay:10.37,2013-12-18 00:51:00,
2013-12-17 17:56:00,57.9,13.3,30.14,SE,129,3.5,3.5,17,0.00,-RA,OVC,0.00,WeatherDisplay:10.37,2013-12-18 00:56:00,
2013-12-17 18:01:00,57.5,14.3,30.14,ESE,123,4.6,4.6,18,0.00,-RA,OVC,0.00,WeatherDisplay:10.37,2013-12-18 01:01:00,
2013-12-17 18:06:00,57.1,13.9,30.14,ESE,123,3.5,3.5,18,0.00,-RA,OVC,0.00,WeatherDisplay:10.37,2013-12-18 01:06:00,
2013-12-17 18:11:00,56.7,13.6,30.14,ESE,123,1.1,1.1,18,0.00,-RA,OVC,0.00,WeatherDisplay:10.37,2013-12-18 01:11:00,
2013-12-17 18:16:00,56.3,13.3,30.13,SE,142,3.5,3.5,18,0.00,-RA,OVC,0.00,WeatherDisplay:10.37,2013-12-18 01:16:00,
2013-12-17 18:21:00,56.2,13.2,30.13,SE,144,4.6,4.6,18,0.00,-RA,OVC,0.00,WeatherDisplay:10.37,2013-12-18 01:21:00,
2013-12-17 18:26:00,56.6,13.5,30.13,East,100,6.9,6.9,18,0.00,-RA,OVC,0.00,WeatherDisplay:10.37,2013-12-18 01:26:00,
2013-12-17 18:31:00,57.1,12.6,30.13,SE,124,3.5,3.5,17,0.00,-RA,OVC,0.00,WeatherDisplay:10.37,2013-12-18 01:31:00,
2013-12-17 18:36:00,57.1,12.6,30.12,ESE,119,3.5,3.5,17,0.00,-RA,OVC,0.00,WeatherDisplay:10.37,2013-12-18 01:36:00,
2013-12-17 18:41:00,57.0,12.5,30.12,ESE,110,5.8,5.8,17,0.00,-RA,OVC,0.00,WeatherDisplay:10.37,2013-12-18 01:41:00,
2013-12-17 18:46:00,57.1,12.6,30.12,East,101,12.7,12.7,17,0.00,-RA,OVC,0.00,WeatherDisplay:10.37,2013-12-18 01:46:00,
2013-12-17 18:51:00,57.7,13.1,30.12,ESE,107,4.6,4.6,17,0.00,-RA,OVC,0.00,WeatherDisplay:10.37,2013-12-18 01:51:00,
2013-12-17 18:56:00,58.2,13.5,30.12,ESE,113,18.4,18.4,17,0.00,-RA,OVC,0.00,WeatherDisplay:10.37,2013-12-18 01:56:00,
2013-12-17 19:01:00,58.6,12.5,30.12,ESE,104,13.0,13.0,16,0.00,-RA,OVC,0.00,WeatherDisplay:10.37,2013-12-18 02:01:00,
2013-12-17 19:06:00,59.0,12.8,30.12,ESE,114,10.4,10.4,16,0.00,-RA,OVC,0.00,WeatherDisplay:10.37,2013-12-18 02:06:00,
2013-12-17 19:11:00,58.8,12.6,30.12,SE,126,5.8,5.8,16,0.00,-RA,OVC,0.00,WeatherDisplay:10.37,2013-12-18 02:11:00,
2013-12-17 19:16:00,58.4,12.3,30.12,SE,127,9.2,9.2,16,0.00,-RA,OVC,0.00,WeatherDisplay:10.37,2013-12-18 02:16:00,
2013-12-17 19:21:00,58.3,13.6,30.12,ESE,117,3.5,3.5,17,0.00,-RA,OVC,0.00,WeatherDisplay:10.37,2013-12-18 02:21:00,
2013-12-17 19:26:00,57.6,14.3,30.12,ESE,115,2.3,2.3,18,0.00,-RA,OVC,0.00,WeatherDisplay:10.37,2013-12-18 02:26:00,
2013-12-17 19:31:00,56.4,13.4,30.12,ESE,102,3.5,3.5,18,0.00,-RA,OVC,0.00,WeatherDisplay:10.37,2013-12-18 02:31:00,
2013-12-17 19:36:00,55.8,12.9,30.11,East,101,3.5,3.5,18,0.00,-RA,OVC,0.00,WeatherDisplay:10.37,2013-12-18 02:36:00,
2013-12-17 19:41:00,55.4,13.8,30.11,East,101,1.1,1.1,19,0.00,-RA,OVC,0.00,WeatherDisplay:10.37,2013-12-18 02:41:00,
2013-12-17 19:46:00,54.6,11.9,30.11,ENE,61,6.9,6.9,18,0.00,-RA,OVC,0.00,WeatherDisplay:10.37,2013-12-18 02:46:00,
2013-12-17 19:51:00,54.8,13.3,30.11,ENE,61,3.5,3.5,19,0.00,-RA,OVC,0.00,WeatherDisplay:10.37,2013-12-18 02:51:00,
2013-12-17 19:56:00,54.5,13.0,30.11,ENE,61,3.5,3.5,19,0.00,-RA,OVC,0.00,WeatherDisplay:10.37,2013-12-18 02:56:00,
2013-12-17 20:01:00,54.0,13.8,30.11,ENE,61,3.5,3.5,20,0.00,-RA,OVC,0.00,WeatherDisplay:10.37,2013-12-18 03:01:00,
2013-12-17 20:06:00,53.3,15.4,30.11,ENE,61,1.1,1.1,22,0.00,-RA,OVC,0.00,WeatherDisplay:10.37,2013-12-18 03:06:00,
2013-12-17 20:11:00,51.9,14.2,30.11,ENE,61,2.3,2.3,22,0.00,-RA,OVC,0.00,WeatherDisplay:10.37,2013-12-18 03:11:00,
2013-12-17 20:16:00,51.1,14.5,30.11,ENE,61,0.0,0.0,23,0.00,-RA,OVC,0.00,WeatherDisplay:10.37,2013-12-18 03:16:00,
2013-12-17 20:21:00,50.4,15.8,30.10,ENE,61,2.0,2.0,25,0.00,-RA,OVC,0.00,WeatherDisplay:10.37,2013-12-18 03:21:00,
2013-12-17 20:26:00,49.6,15.2,30.10,ENE,61,0.0,0.0,25,0.00,-RA,OVC,0.00,WeatherDisplay:10.37,2013-12-18 03:26:00,
2013-12-17 20:31:00,48.8,16.2,30.10,ENE,61,3.5,3.5,27,0.00,-RA,OVC,0.00,WeatherDisplay:10.37,2013-12-18 03:31:00,
2013-12-17 20:36:00,48.1,15.6,30.10,NE,39,3.5,3.5,27,0.00,-RA,OVC,0.00,WeatherDisplay:10.37,2013-12-18 03:36:00,
2013-12-17 20:41:00,47.6,14.3,30.10,East,98,3.5,3.5,26,0.00,-RA,OVC,0.00,WeatherDisplay:10.37,2013-12-18 03:41:00,
2013-12-17 20:46:00,47.4,15.9,30.10,East,98,3.5,3.5,28,0.00,-RA,OVC,0.00,WeatherDisplay:10.37,2013-12-18 03:46:00,
2013-12-17 20:51:00,47.2,14.9,30.10,South,187,4.6,4.6,27,0.00,-RA,OVC,0.00,WeatherDisplay:10.37,2013-12-18 03:51:00,
2013-12-17 20:56:00,47.3,15.8,30.10,ENE,71,4.6,4.6,28,0.00,-RA,OVC,0.00,WeatherDisplay:10.37,2013-12-18 03:56:00,
2013-12-17 21:01:00,47.0,16.3,30.10,ENE,71,2.3,0.0,29,0.00,-RA,OVC,0.00,WeatherDisplay:10.37,2013-12-18 04:01:00,
2013-12-17 21:06:00,46.4,16.6,30.10,ESE,113,5.8,5.8,30,0.00,-RA,OVC,0.00,WeatherDisplay:10.37,2013-12-18 04:06:00,
2013-12-17 21:11:00,46.3,14.9,30.10,ESE,113,3.5,3.5,28,0.00,-RA,OVC,0.00,WeatherDisplay:10.37,2013-12-18 04:11:00,
2013-12-17 21:16:00,46.8,15.4,30.10,ESE,111,2.3,2.3,28,0.00,-RA,OVC,0.00,WeatherDisplay:10.37,2013-12-18 04:16:00,
2013-12-17 21:21:00,46.9,15.4,30.10,ESE,111,1.1,1.1,28,0.00,-RA,OVC,0.00,WeatherDisplay:10.37,2013-12-18 04:21:00,
2013-12-17 21:26:00,47.2,14.9,30.10,ESE,111,3.5,3.5,27,0.00,-RA,OVC,0.00,WeatherDisplay:10.37,2013-12-18 04:26:00,
2013-12-17 21:31:00,47.2,15.7,30.10,ESE,111,0.0,0.0,28,0.00,-RA,OVC,0.00,WeatherDisplay:10.37,2013-12-18 04:31:00,
2013-12-17 21:36:00,47.3,15.8,30.10,ESE,111,0.0,0.0,28,0.00,-RA,OVC,0.00,WeatherDisplay:10.37,2013-12-18 04:36:00,
2013-12-17 21:41:00,47.3,16.6,30.10,ESE,111,1.1,1.1,29,0.00,-RA,OVC,0.00,WeatherDisplay:10.37,2013-12-18 04:41:00,
2013-12-17 21:46:00,47.1,15.6,30.10,ESE,111,2.0,2.0,28,0.00,-RA,OVC,0.00,WeatherDisplay:10.37,2013-12-18 04:46:00,
2013-12-17 21:51:00,46.9,14.6,30.10,ESE,111,0.0,0.0,27,0.00,-RA,OVC,0.00,WeatherDisplay:10.37,2013-12-18 04:51:00,
2013-12-17 21:56:00,47.0,15.5,30.10,ESE,111,0.0,0.0,28,0.00,-RA,OVC,0.00,WeatherDisplay:10.37,2013-12-18 04:56:00,
2013-12-17 22:01:00,46.9,16.3,30.10,ESE,111,0.0,0.0,29,0.00,-RA,OVC,0.00,WeatherDisplay:10.37,2013-12-18 05:01:00,
2013-12-17 22:06:00,46.5,16.7,30.10,ESE,111,1.1,1.1,30,0.00,-RA,OVC,0.00,WeatherDisplay:10.37,2013-12-18 05:06:00,
2013-12-17 22:11:00,46.3,14.1,30.10,ESE,111,3.5,3.5,27,0.00,-RA,OVC,0.00,WeatherDisplay:10.37,2013-12-18 05:11:00,
2013-12-17 22:16:00,46.7,15.3,30.10,ESE,111,0.0,0.1,28,0.00,-RA,OVC,0.00,WeatherDisplay:10.37,2013-12-18 05:16:00,
2013-12-17 22:21:00,46.7,16.1,30.10,ESE,111,0.0,0.0,29,0.00,-RA,OVC,0.00,WeatherDisplay:10.37,2013-12-18 05:21:00,
2013-12-17 22:26:00,46.7,15.3,30.10,ESE,111,0.0,0.0,28,0.00,-RA,OVC,0.00,WeatherDisplay:10.37,2013-12-18 05:26:00,
2013-12-17 22:31:00,46.8,15.4,30.09,ESE,111,2.0,2.0,28,0.00,-RA,OVC,0.00,WeatherDisplay:10.37,2013-12-18 05:31:00,
2013-12-17 22:36:00,47.0,16.3,30.08,ESE,111,2.3,0.0,29,0.00,-RA,OVC,0.00,WeatherDisplay:10.37,2013-12-18 05:36:00,
2013-12-17 22:41:00,47.0,15.5,30.08,ESE,111,0.0,0.0,28,0.00,-RA,OVC,0.00,WeatherDisplay:10.37,2013-12-18 05:41:00,
2013-12-17 22:46:00,46.7,16.1,30.08,ESE,111,1.1,0.0,29,0.00,-RA,OVC,0.00,WeatherDisplay:10.37,2013-12-18 05:46:00,
2013-12-17 22:51:00,46.8,16.2,30.08,ESE,111,3.5,0.0,29,0.00,-RA,OVC,0.00,WeatherDisplay:10.37,2013-12-18 05:51:00,
2013-12-17 22:56:00,46.8,16.2,30.08,ESE,111,0.0,0.0,29,0.00,-RA,OVC,0.00,WeatherDisplay:10.37,2013-12-18 05:56:00,
2013-12-17 23:01:00,46.8,16.2,30.08,ESE,111,1.1,1.1,29,0.00,-RA,OVC,0.00,WeatherDisplay:10.37,2013-12-18 06:01:00,
2013-12-17 23:06:00,46.6,16.8,30.08,ESE,111,0.0,0.0,30,0.00,-RA,OVC,0.00,WeatherDisplay:10.37,2013-12-18 06:06:00,
2013-12-17 23:11:00,46.2,17.2,30.08,ESE,111,0.0,0.0,31,0.00,-RA,OVC,0.00,WeatherDisplay:10.37,2013-12-18 06:11:00,
2013-12-17 23:16:00,46.1,17.1,30.08,ESE,111,0.0,0.1,31,0.00,-RA,OVC,0.00,WeatherDisplay:10.37,2013-12-18 06:16:00,
2013-12-17 23:21:00,46.1,16.3,30.08,ESE,111,2.3,2.3,30,0.00,-RA,OVC,0.00,WeatherDisplay:10.37,2013-12-18 06:21:00,
2013-12-17 23:26:00,46.2,16.4,30.08,ESE,111,0.0,0.0,30,0.00,-RA,OVC,0.00,WeatherDisplay:10.37,2013-12-18 06:26:00,
2013-12-17 23:31:00,46.1,16.3,30.08,ESE,111,0.0,0.0,30,0.00,-RA,OVC,0.00,WeatherDisplay:10.37,2013-12-18 06:31:00,
2013-12-17 23:36:00,46.1,16.3,30.08,ESE,111,0.0,0.0,30,0.00,-RA,OVC,0.00,WeatherDisplay:10.37,2013-12-18 06:36:00,
2013-12-17 23:41:00,45.8,16.8,30.08,ESE,111,0.0,0.0,31,0.00,-RA,OVC,0.00,WeatherDisplay:10.37,2013-12-18 06:41:00,
2013-12-17 23:46:00,45.6,16.7,30.08,ESE,112,5.0,5.0,31,0.00,-RA,OVC,0.00,WeatherDisplay:10.37,2013-12-18 06:46:00,
2013-12-17 23:51:00,46.7,16.9,30.08,ESE,112,2.3,2.3,30,0.00,-RA,OVC,0.00,WeatherDisplay:10.37,2013-12-18 06:51:00,
2013-12-17 23:56:00,47.0,15.5,30.08,ESE,112,2.3,2.3,28,0.00,-RA,OVC,0.00,WeatherDisplay:10.37,2013-12-18 06:56:00,